[分享] 今日山本由伸

看板 Baseball
作者
時間
留言 36則留言,32人參與討論
推噓 22 ( 23推 1噓 12→ )
討論串 14
IP NP H HR R ER BB SO ERA 7.0 106 6 1 1 1 1 8 0.78 羅德歐力士三連戰最終場 山本由伸在第二局被雷阿斗擊出一支陽春砲 失掉唯一一分 本場最快球速155km/h 而隊友在前三局就幫他打下五分的援護 終場歐力士 5:1 勝羅德 中止羅德的連勝 山本拿下第二勝 同時也是生涯第100場登板 --
※ 發信站: 批踢踢實業坊(ptt.cc), 來自: 27.53.185.149 (臺灣) ※ 文章網址: https://www.ptt.cc/bbs/Baseball/M.1617882376.A.E9E.html
1Fsesd: 居然丟1分 今天60分剛好及格04/08 19:46
2Flmf770410: 慟!打線幫忙打了5分!04/08 19:46
3Fchargebro: 竟然有援護了04/08 19:46
4Faleximba2: 居然有五分援護 你不是山本==04/08 19:47
5Fshonbig: 歐牛打擊居然長出來了04/08 19:47
6Fsesd: 話說歐牛今天全本土打線 拿了5分 AJ你可以解約自己滾了04/08 19:47
※ 編輯: cho840929 (27.53.185.149 臺灣), 04/08/2021 19:48:23
7FMovice: 8K不及格 04/08 19:49
8Fa1090236: 失一分就算炎上的男人 04/08 19:49
9Fmtyk10100: 失1分 炎上了 04/08 19:50
10FPuye: 還敢掉一分阿 由伸 04/08 19:50
11Fyoungorg: 歐牛打線怎麼了 04/08 19:51
12FAlvarez: 對方派雜魚先發 歐牛總A這就對了 排週4對對方下駟穩拿1勝 04/08 19:53
13FAlvarez: 球隊戰績也比較好看 04/08 19:54
14Fckeleaf: 今天下雨呀! 04/08 19:55
15Fadidasair1: 0.78失敗 04/08 19:56
16FTribute: 宵夜有請有差(誤)^_^ 04/08 19:59
17Fckeleaf: 防禦率王讓給隊友了 04/08 20:02
18Ftpot: 猛 04/08 20:03
19Ftpcx2001: 推山本,室外球場有進步 04/08 20:06
20Flinisthebest: 0.78怎麼輸 04/08 20:10
21Fglthe1: 國內王,球速太慢出國變肉包… 04/08 20:12
22Fbusiness85: 不愧是王牌先發 04/08 20:27
23Fjuicyfruit: 推~~~ 04/08 20:32
24Fsakasiaga: 漆原9局2出局搞到滿壘,差點烙賽,還好平野解決荻野 04/08 20:54
25Fnarlucese: 超強 04/08 20:57
26Fstrikeman: 山本球速蠻快的吧... 04/08 21:20
27Fhahated123: 這樣球速叫慢喔? 04/08 21:21
28Fstrikeman: 155km...很慢是三小.... 04/08 21:21
※ 編輯: cho840929 (27.53.185.149 臺灣), 04/08/2021 21:26:32
29Fcho840929: 這場也是山本生涯第100次登板 04/08 21:27
30Fwinrin32805: 恭喜由伸 04/08 21:38
31Fshiory: 那ID就是個反串仔,無視他就行了 04/08 21:39
32FBaRanKa: 無知仔總是不嫌少 台灣隊能打到他球的也不會太多個 04/08 21:40
33Fzixo6318: 5分 這不是歐牛== 04/08 21:46
34Fdiditomtom: 恭喜! 04/08 22:33
35Fpazudora: 真的強 04/09 12:41
36FTrystill: 洋聯精華 https://youtu.be/fT_Mwb7woK0 04/10 21:22

完整討論串

留言數 標題 作者 日期
14 [分享] 今日山本由伸 lrhn0289 2019/05/02 16:31:08
10 [分享] 今日山本由伸 lrhn0289 2019/05/09 21:40:20
13 [分享] 今日山本由伸 lrhn0289 2019/05/28 20:27:52
21 [分享] 今日山本由伸 lrhn0289 2019/09/08 15:45:01
58 [分享] 今日山本由伸 Makimywife 2020/07/12 14:49:48
0 [分享] 今日山本由伸 matthew90236 2020/07/12 14:52:00
12 [分享] 今日山本由伸 kiversonx17 2020/07/26 21:10:17
21 [分享] 今日山本由伸 world4849844 2020/09/22 20:41:34
4 Re: [分享] 今日山本由伸 rainfruit 2020/09/22 21:06:57
17 [分享] 今日山本由伸 world4849844 2020/10/20 20:31:57
32 Re: [分享] 今日山本由伸 Zuleta 2020/10/20 22:05:17
124 [分享] 今日山本由伸 cho840929 2021/04/01 19:48:01
11 Re: [分享] 今日山本由伸 AisinGioro 2021/04/01 21:18:29
36 >> [分享] 今日山本由伸 cho840929 2021/04/08 19:46:14

Baseball 看板熱門文章

26
43
2021/04/20 22:29:07
151
212
27
33
2021/04/21 00:33:52
17
34